Camarillo Airport

Airport
ICAO code: 
KCMA
Summary
ICAO Region: 
EUR
Territory: 
Location: 
Camarillo, California
Serving: 
Oxnard
Elevation: 
77 ft
Coordinates: 
Aerial View: 
34° 12' 43.704" N, 119° 5' 23.748" W
Metar
Observation
KCMA 020955Z AUTO 00000KT 1/4SM FG VV002 11/11 A3009 RMK AO2 SLP200 T01110106
Station
Camarillo, Camarillo Airport
Date/Time
2021-12-02 09:55:00
Wind direction
Wind speed
00 kts
Lowest cloud amount
n/a
Temperature
11.1°C
Dew point
10.6°C
Humidity
96%
Weather condition
fog

Camarillo Airport is a public airport located 3 nm west of the central business district of Camarillo, a city in Ventura County, California, United States.

Climatology

Temperate mediterranean climate (Köppen climate classification Csb)

Runways

Designator Length Width Surface Rops
8/26 1833 46 PEM Yes/Yes
Airport map: 
Aerial View: 

SKYbrary Partners:

Safety knowledge contributed by: